Smithville, Arkansas
Current Conditions -  °F | °C
As of 12:55 AM on Monday 24 Nov 2014 (Local Time) from KARG Reporting Station
Scattered Clouds Scattered Clouds  
Wind Chill: 16°   Ceiling: Unl
Heat Index: 16°   Visibility: 10mi
Dew Point: 12°   Wind: 20mph
Humidity: 77%   Direction: 210°SSW
Pressure: 29.32"   Gusts: 26mph
Location:  36.08°N, 91.3°W
Report Text: KARG 240655Z AUTO 21017G23KT 10SM FEW021 FEW060 SCT090 16/12 A2932 RMK AO1 LTG DSNT NW
Loading
Personal Weather Stations






























Interactive Weather Map New forecast layout! Learn more

10-Day Weather Forecast

Advertisements
Track Severe Weather on mobile